Time;durP1;ratioP1;P1;durP2;ratioP2;P2;SDS_P1;SDS_P2;PMS_P1;PMS_P2;Temp;Humidity;BMP_temperature;BMP_pressure;BME280_temperature;BME280_humidity;BME280_pressure;Samples;Min_cycle;Max_cycle;Signal;HPM_P1;HPM_P2
2021/07/01 00:00:08;;;;;;;6.05;5.07;;;;;;;14.73;75.27;98758.13;3582138;40;20033;-64
2021/07/01 00:02:36;;;;;;;5.72;5.20;;;;;;;14.67;74.98;98767.81;3581314;40;20055;-63
2021/07/01 00:05:05;;;;;;;8.05;5.82;;;;;;;14.64;75.19;98765.59;3581157;40;20052;-64
2021/07/01 00:07:33;;;;;;;6.45;5.72;;;;;;;14.63;75.37;98763.16;3581943;40;20056;-64
2021/07/01 00:10:05;;;;;;;8.65;5.68;;;;;;;14.68;75.43;98763.31;3582185;40;20049;-64
2021/07/01 00:12:33;;;;;;;6.82;5.35;;;;;;;14.67;75.09;98765.16;3582122;40;20045;-63
2021/07/01 00:15:01;;;;;;;7.70;6.18;;;;;;;14.64;74.99;98767.44;3580927;40;20045;-63
2021/07/01 00:17:28;;;;;;;7.15;6.45;;;;;;;14.64;75.34;98770.09;3581255;40;20045;-64
2021/07/01 00:19:56;;;;;;;9.40;6.15;;;;;;;14.64;75.04;98764.78;3581643;40;20040;-64
2021/07/01 00:22:24;;;;;;;10.52;6.82;;;;;;;14.64;75.34;98765.59;3581683;40;20357;-64
2021/07/01 00:24:52;;;;;;;8.65;6.95;;;;;;;14.63;75.43;98763.97;3583197;40;20089;-64
2021/07/01 00:27:21;;;;;;;9.57;7.53;;;;;;;14.62;75.15;98773.00;3583447;40;20476;-64
2021/07/01 00:29:49;;;;;;;9.25;7.93;;;;;;;14.64;75.00;98770.91;3583671;40;20047;-63
2021/07/01 00:32:16;;;;;;;8.70;7.88;;;;;;;14.66;74.97;98771.53;3583336;40;20321;-64
2021/07/01 00:34:44;;;;;;;10.45;7.97;;;;;;;14.66;75.09;98770.72;3583420;40;20103;-63
2021/07/01 00:37:12;;;;;;;9.15;8.00;;;;;;;14.72;75.02;98773.28;3583516;40;20307;-64
2021/07/01 00:39:40;;;;;;;10.45;7.57;;;;;;;14.76;75.01;98768.34;3584160;40;20040;-64
2021/07/01 00:42:07;;;;;;;12.00;8.15;;;;;;;14.71;75.23;98765.53;3583953;40;20056;-64
2021/07/01 00:44:37;;;;;;;11.00;7.93;;;;;;;14.68;74.84;98771.28;3583469;40;20073;-64
2021/07/01 00:47:05;;;;;;;9.38;7.82;;;;;;;14.64;75.17;98768.25;3582682;40;20366;-64
2021/07/01 00:49:34;;;;;;;9.15;8.23;;;;;;;14.66;75.02;98768.03;3583118;40;20049;-64
2021/07/01 00:52:04;;;;;;;11.98;8.13;;;;;;;14.65;74.85;98779.69;3581851;40;20044;-64
2021/07/01 00:54:32;;;;;;;9.73;7.93;;;;;;;14.65;75.03;98777.03;3582635;40;20053;-64
2021/07/01 00:57:00;;;;;;;10.27;7.53;;;;;;;14.64;74.99;98775.41;3582379;40;20173;-64
2021/07/01 00:59:29;;;;;;;8.88;7.88;;;;;;;14.63;74.99;98773.81;3581429;40;20060;-64
2021/07/01 01:01:58;;;;;;;10.45;7.47;;;;;;;14.62;75.14;98783.63;3582957;40;20134;-63
2021/07/01 01:04:27;;;;;;;10.25;7.70;;;;;;;14.64;74.97;98778.88;3581157;40;20048;-63
2021/07/01 01:06:55;;;;;;;11.68;7.95;;;;;;;14.61;74.94;98774.84;3581122;40;20048;-63
2021/07/01 01:09:23;;;;;;;9.68;8.05;;;;;;;14.62;75.00;98780.97;3579931;40;20044;-64
2021/07/01 01:11:51;;;;;;;12.52;8.27;;;;;;;14.57;74.97;98778.13;3579709;40;20519;-64
2021/07/01 01:14:19;;;;;;;11.32;7.32;;;;;;;14.51;74.82;98779.81;3580158;40;20053;-64
2021/07/01 01:16:50;;;;;;;12.68;8.18;;;;;;;14.59;74.81;98781.41;3582104;40;20389;-63
2021/07/01 01:19:19;;;;;;;9.38;7.88;;;;;;;14.53;74.86;98776.94;3580808;40;20334;-64
2021/07/01 01:21:49;;;;;;;9.52;7.20;;;;;;;14.56;75.04;98773.84;3581617;40;20045;-63
2021/07/01 01:24:18;;;;;;;9.77;6.93;;;;;;;14.60;74.56;98780.34;3579557;40;20052;-64
2021/07/01 01:26:45;;;;;;;7.78;7.00;;;;;;;14.58;74.43;98771.81;3580386;40;20045;-64
2021/07/01 01:29:13;;;;;;;9.65;6.90;;;;;;;14.60;74.52;98777.69;3579691;40;20044;-64
2021/07/01 01:31:44;;;;;;;7.95;7.13;;;;;;;14.60;74.66;98775.03;3579006;40;20084;-64
2021/07/01 01:34:12;;;;;;;7.97;6.93;;;;;;;14.65;74.41;98777.03;3578842;40;20064;-63
2021/07/01 01:36:39;;;;;;;7.25;6.22;;;;;;;14.62;74.41;98770.31;3578798;40;20146;-64
2021/07/01 01:39:09;;;;;;;14.30;7.07;;;;;;;14.63;74.96;98765.81;3579837;40;20056;-64
2021/07/01 01:41:54;;;;;;;7.03;6.22;;;;;;;14.61;74.47;98769.53;3579838;40;20298;-63
2021/07/01 01:44:23;;;;;;;6.32;5.57;;;;;;;14.65;74.67;98767.22;3578641;40;20491;-63
2021/07/01 01:46:51;;;;;;;8.68;6.22;;;;;;;14.60;74.72;98765.22;3578479;40;20040;-64
2021/07/01 01:49:21;;;;;;;8.45;6.82;;;;;;;14.54;74.67;98765.28;3578635;40;20049;-64
2021/07/01 01:51:51;;;;;;;8.45;6.72;;;;;;;14.53;75.10;98767.13;3578739;40;20029;-64
2021/07/01 01:54:20;;;;;;;7.15;6.07;;;;;;;14.56;75.23;98771.19;3579530;40;20057;-64
2021/07/01 01:56:49;;;;;;;6.95;5.88;;;;;;;14.67;75.23;98772.31;3578460;40;20045;-64
2021/07/01 01:59:37;;;;;;;7.75;5.97;;;;;;;14.76;74.62;98768.34;3579826;40;20089;-64
2021/07/01 02:02:28;;;;;;;7.35;5.65;;;;;;;14.73;74.78;98774.09;3579391;40;20424;-63
2021/07/01 02:05:15;;;;;;;7.75;5.50;;;;;;;14.72;74.27;98772.47;3579600;40;20487;-65
2021/07/01 02:07:45;;;;;;;5.63;5.13;;;;;;;14.72;74.68;98772.47;3579818;40;20056;-63
2021/07/01 02:10:21;;;;;;;8.23;5.85;;;;;;;14.74;74.66;98773.91;3579905;40;20060;-64
2021/07/01 02:12:49;;;;;;;8.77;6.00;;;;;;;14.74;74.45;98776.56;3579557;40;20055;-63
2021/07/01 02:15:20;;;;;;;8.95;5.35;;;;;;;14.79;74.56;98778.56;3579565;40;20130;-64
2021/07/01 02:17:50;;;;;;;6.40;5.72;;;;;;;14.77;73.99;98770.78;3578620;40;20060;-64
2021/07/01 02:20:20;;;;;;;7.85;6.05;;;;;;;14.70;74.36;98769.25;3579562;40;20053;-64
2021/07/01 02:22:50;;;;;;;10.18;6.22;;;;;;;14.68;74.21;98780.06;3579892;40;20122;-63
2021/07/01 02:25:23;;;;;;;7.75;5.93;;;;;;;14.62;74.17;98773.00;3584347;40;20316;-63
2021/07/01 02:28:13;;;;;;;8.23;6.05;;;;;;;14.62;74.85;98778.31;3585304;40;20086;-65
2021/07/01 02:30:45;;;;;;;6.80;6.07;;;;;;;14.60;74.69;98775.84;3585676;40;20081;-64
2021/07/01 02:33:14;;;;;;;11.55;6.97;;;;;;;14.65;74.38;98777.03;3585602;40;20063;-64
2021/07/01 02:35:42;;;;;;;8.00;6.72;;;;;;;14.66;74.59;98782.16;3584101;40;20045;-64
2021/07/01 02:38:28;;;;;;;8.75;6.35;;;;;;;14.67;74.65;98781.13;3580536;40;20055;-62
2021/07/01 02:41:08;;;;;;;8.82;7.00;;;;;;;14.73;74.82;98776.75;3578789;40;20052;-65
2021/07/01 02:43:41;;;;;;;11.18;7.65;;;;;;;14.69;74.61;98781.69;3579196;40;20049;-63
2021/07/01 02:46:27;;;;;;;10.25;7.93;;;;;;;14.63;74.63;98787.91;3578974;40;20131;-63
2021/07/01 02:48:56;;;;;;;10.30;7.75;;;;;;;14.53;74.79;98784.91;3579316;40;20045;-64
2021/07/01 02:51:25;;;;;;;8.82;7.63;;;;;;;14.59;75.49;98792.03;3578505;40;20045;-63
2021/07/01 02:53:54;;;;;;;9.73;6.90;;;;;;;14.61;75.64;98790.81;3579141;40;20059;-63
2021/07/01 02:56:39;;;;;;;9.35;7.82;;;;;;;14.64;75.05;98784.22;3579102;40;20049;-63
2021/07/01 02:59:10;;;;;;;8.27;7.45;;;;;;;14.68;75.26;98784.59;3578348;40;20127;-63
2021/07/01 03:02:06;;;;;;;8.70;7.00;;;;;;;14.69;75.24;98786.22;3578190;40;20327;-64
2021/07/01 03:04:42;;;;;;;9.52;7.55;;;;;;;14.69;75.54;98787.03;3578161;40;20045;-63
2021/07/01 03:07:12;;;;;;;10.55;8.07;;;;;;;14.74;75.33;98781.88;3578594;40;20052;-63
2021/07/01 03:09:40;;;;;;;10.05;7.38;;;;;;;14.77;75.28;98783.25;3579827;40;20029;-64
2021/07/01 03:12:09;;;;;;;8.68;7.82;;;;;;;14.78;75.23;98788.38;3579577;40;20348;-64
2021/07/01 03:14:38;;;;;;;7.07;6.00;;;;;;;14.76;75.64;98787.78;3578086;40;20066;-64
2021/07/01 03:17:07;;;;;;;8.60;7.70;;;;;;;14.76;74.99;98787.78;3578698;40;20052;-64
2021/07/01 03:19:36;;;;;;;7.57;6.78;;;;;;;14.76;75.13;98779.78;3578084;40;20056;-64
2021/07/01 03:22:26;;;;;;;8.50;6.60;;;;;;;14.73;75.11;98784.75;3578964;40;20127;-64
2021/07/01 03:24:56;;;;;;;7.80;7.00;;;;;;;14.76;75.24;98784.31;3578045;40;20215;-64
2021/07/01 03:27:25;;;;;;;9.88;6.68;;;;;;;14.74;75.01;98789.03;3578782;40;20053;-63
2021/07/01 03:29:53;;;;;;;9.07;6.95;;;;;;;14.66;75.24;98787.47;3577947;40;20065;-64
2021/07/01 03:32:22;;;;;;;8.63;6.43;;;;;;;14.66;75.28;98784.00;3581678;40;20055;-65
2021/07/01 03:34:50;;;;;;;9.13;6.53;;;;;;;14.65;75.21;98780.50;3585556;40;20049;-63
2021/07/01 03:37:37;;;;;;;7.57;6.65;;;;;;;14.66;75.30;98792.00;3585713;40;20127;-63
2021/07/01 03:40:37;;;;;;;7.95;6.68;;;;;;;14.58;75.71;98788.56;3567665;40;20049;-63
2021/07/01 03:43:07;;;;;;;9.15;6.40;;;;;;;14.59;75.63;98786.72;3578771;40;20057;-63
2021/07/01 03:45:37;;;;;;;6.72;5.90;;;;;;;14.53;76.21;98793.75;3578541;40;20053;-62
2021/07/01 03:48:06;;;;;;;8.10;6.32;;;;;;;14.58;76.33;98788.56;3578923;40;20362;-64
2021/07/01 03:50:39;;;;;;;7.25;5.97;;;;;;;14.64;76.09;98797.50;3578306;40;20324;-64
2021/07/01 03:53:15;;;;;;;6.57;5.75;;;;;;;14.71;75.66;98792.13;3577788;40;20048;-64
2021/07/01 03:55:43;;;;;;;7.03;5.78;;;;;;;14.70;75.59;98793.19;3578637;40;20329;-63
2021/07/01 03:58:13;;;;;;;7.07;5.95;;;;;;;14.64;75.61;98797.50;3579283;40;20033;-63
2021/07/01 04:00:46;;;;;;;6.43;5.82;;;;;;;14.62;76.18;98791.63;3579489;40;20412;-63
2021/07/01 04:03:14;;;;;;;7.13;5.72;;;;;;;14.58;76.11;98795.75;3579253;40;20049;-63
2021/07/01 04:06:08;;;;;;;8.15;5.20;;;;;;;14.60;76.46;98802.44;3579277;40;20382;-63
2021/07/01 04:08:38;;;;;;;5.60;5.10;;;;;;;14.58;76.56;98787.75;3579312;40;20048;-63
2021/07/01 04:11:10;;;;;;;5.80;4.53;;;;;;;14.53;76.90;98798.22;3579342;40;20406;-64
2021/07/01 04:13:39;;;;;;;9.02;5.32;;;;;;;14.58;76.36;98798.41;3580185;40;20045;-64
2021/07/01 04:16:26;;;;;;;5.90;4.93;;;;;;;14.54;76.41;98798.03;3580173;40;20051;-63
2021/07/01 04:19:13;;;;;;;9.75;5.20;;;;;;;14.53;76.78;98798.22;3580590;40;20130;-63
2021/07/01 04:22:03;;;;;;;5.75;5.03;;;;;;;14.47;76.63;98799.06;3580297;40;20124;-64
2021/07/01 04:24:50;;;;;;;4.95;4.50;;;;;;;14.45;77.08;98801.13;3580077;40;20373;-63
2021/07/01 04:27:27;;;;;;;8.18;4.75;;;;;;;14.47;77.34;98802.53;3579038;40;20053;-63
2021/07/01 04:29:56;;;;;;;6.03;4.85;;;;;;;14.48;76.85;98800.69;3578925;40;20069;-63
2021/07/01 04:32:27;;;;;;;7.63;5.25;;;;;;;14.53;76.79;98798.22;3579215;40;20052;-63
2021/07/01 04:34:55;;;;;;;6.00;4.55;;;;;;;14.52;76.82;98796.59;3579922;40;20064;-64
2021/07/01 04:37:23;;;;;;;7.20;5.10;;;;;;;14.54;77.04;98798.03;3579836;40;20085;-64
2021/07/01 04:39:52;;;;;;;7.38;4.95;;;;;;;14.54;76.86;98795.38;3578924;40;20045;-64
2021/07/01 04:42:35;;;;;;;5.30;4.80;;;;;;;14.58;77.08;98804.53;3578847;40;20115;-64
2021/07/01 04:45:06;;;;;;;8.43;5.60;;;;;;;14.51;76.88;98803.78;3578528;40;20045;-64
2021/07/01 04:47:35;;;;;;;5.85;4.55;;;;;;;14.53;76.78;98804.38;3579374;40;20057;-64
2021/07/01 04:50:05;;;;;;;6.10;4.55;;;;;;;14.56;76.71;98801.25;3578709;40;20038;-63
2021/07/01 04:52:36;;;;;;;4.95;4.55;;;;;;;14.54;76.22;98802.53;3580048;40;20052;-65
2021/07/01 04:55:22;;;;;;;5.43;4.05;;;;;;;14.56;76.75;98806.59;3579700;40;20056;-64
2021/07/01 04:58:08;;;;;;;4.90;4.38;;;;;;;14.56;76.56;98801.25;3579477;40;20052;-63
2021/07/01 05:00:45;;;;;;;6.30;4.20;;;;;;;14.59;76.45;98806.16;3579412;40;20045;-63
2021/07/01 05:03:31;;;;;;;5.72;4.40;;;;;;;14.61;75.97;98804.09;3580147;40;20048;-63
2021/07/01 05:05:59;;;;;;;5.00;4.43;;;;;;;14.68;76.08;98804.03;3578594;40;20421;-63
2021/07/01 05:08:27;;;;;;;4.78;4.13;;;;;;;14.71;75.75;98798.28;3579564;40;20595;-63
2021/07/01 05:10:56;;;;;;;5.80;5.20;;;;;;;14.79;75.73;98790.00;3578990;40;20049;-63
2021/07/01 05:13:24;;;;;;;4.70;4.20;;;;;;;14.68;75.32;98793.38;3579570;40;20045;-63
2021/07/01 05:15:53;;;;;;;6.28;4.50;;;;;;;14.71;75.46;98803.59;3579591;40;20045;-63
2021/07/01 05:18:22;;;;;;;5.22;4.75;;;;;;;14.68;75.80;98808.53;3578853;40;20048;-63
2021/07/01 05:21:21;;;;;;;6.22;4.85;;;;;;;14.67;75.78;98813.03;3576193;40;20394;-63
2021/07/01 05:24:08;;;;;;;6.97;4.63;;;;;;;14.68;75.85;98813.84;3579759;40;20055;-64
2021/07/01 05:26:54;;;;;;;6.18;5.07;;;;;;;14.68;76.23;98816.53;3579160;40;20084;-64
2021/07/01 05:29:40;;;;;;;6.05;5.00;;;;;;;14.72;76.06;98815.03;3579850;40;20060;-64
2021/07/01 05:33:05;;;;;;;6.47;4.93;;;;;;;14.75;75.92;98810.09;3567852;40;20057;-64
2021/07/01 05:35:36;;;;;;;5.80;4.40;;;;;;;14.73;75.32;98811.34;3576905;40;20305;-65
2021/07/01 05:38:04;;;;;;;4.30;3.90;;;;;;;14.68;76.04;98819.19;3578256;40;20051;-64
2021/07/01 05:40:34;;;;;;;7.25;4.55;;;;;;;14.71;75.85;98814.25;3578574;40;20057;-64
2021/07/01 05:43:02;;;;;;;5.25;4.50;;;;;;;14.76;75.79;98810.91;3579439;40;20421;-65
2021/07/01 05:45:33;;;;;;;6.38;4.63;;;;;;;14.84;75.72;98807.97;3578368;40;20150;-64
2021/07/01 05:48:01;;;;;;;4.55;4.05;;;;;;;14.93;75.25;98816.47;3577943;40;20048;-65
2021/07/01 05:50:31;;;;;;;4.60;4.20;;;;;;;14.89;75.32;98809.97;3579528;40;20074;-63
2021/07/01 05:53:04;;;;;;;5.53;3.50;;;;;;;14.88;74.83;98819.00;3580420;40;20045;-63
2021/07/01 05:55:32;;;;;;;5.25;4.32;;;;;;;14.94;74.95;98823.44;3579562;40;20045;-63
2021/07/01 05:58:00;;;;;;;5.70;4.53;;;;;;;15.00;75.09;98820.72;3579404;40;20045;-63
2021/07/01 06:00:29;;;;;;;5.07;4.30;;;;;;;15.15;74.66;98825.69;3579736;40;20064;-63
2021/07/01 06:02:57;;;;;;;4.72;4.10;;;;;;;15.19;74.33;98818.88;3578615;40;20053;-63
2021/07/01 06:05:25;;;;;;;5.13;3.95;;;;;;;15.23;73.54;98821.91;3579471;40;20340;-64
2021/07/01 06:08:22;;;;;;;5.38;3.80;;;;;;;15.20;73.38;98819.69;3567369;40;20064;-64
2021/07/01 06:10:54;;;;;;;4.82;3.92;;;;;;;15.28;73.69;98825.53;3580045;40;20029;-64
2021/07/01 06:13:23;;;;;;;4.60;4.10;;;;;;;15.40;73.53;98822.94;3579597;40;20041;-63
2021/07/01 06:15:52;;;;;;;5.00;4.15;;;;;;;15.44;73.21;98821.44;3579627;40;20106;-63
2021/07/01 06:18:21;;;;;;;5.50;3.65;;;;;;;15.46;72.84;98822.03;3578612;40;20437;-63
2021/07/01 06:20:50;;;;;;;3.75;3.45;;;;;;;15.63;72.70;98822.22;3579678;40;20061;-63
2021/07/01 06:23:21;;;;;;;7.40;4.60;;;;;;;15.81;71.98;98819.56;3578522;40;20052;-64
2021/07/01 06:25:49;;;;;;;4.78;3.95;;;;;;;15.90;71.16;98825.41;3579523;40;20045;-63
2021/07/01 06:28:17;;;;;;;4.53;3.85;;;;;;;15.84;70.77;98813.78;3579805;40;20406;-63
2021/07/01 06:30:46;;;;;;;5.47;3.97;;;;;;;15.82;70.65;98825.72;3578549;40;20107;-63
2021/07/01 06:33:16;;;;;;;5.25;4.00;;;;;;;15.82;70.25;98817.72;3579542;40;20081;-63
2021/07/01 06:35:49;;;;;;;5.75;3.75;;;;;;;15.84;70.98;98823.66;3578499;40;20310;-63
2021/07/01 06:38:23;;;;;;;6.00;3.65;;;;;;;15.84;70.07;98823.66;3578730;40;20061;-64
2021/07/01 06:41:10;;;;;;;5.80;3.53;;;;;;;15.76;70.46;98824.78;3579269;40;20123;-64
2021/07/01 06:43:57;;;;;;;4.20;3.80;;;;;;;15.81;70.24;98824.91;3579314;40;20318;-64
2021/07/01 06:46:44;;;;;;;4.20;3.80;;;;;;;15.81;70.28;98837.41;3579186;40;20048;-64
2021/07/01 06:49:48;;;;;;;5.32;4.00;;;;;;;15.91;70.38;98836.88;3567293;40;20064;-64
2021/07/01 06:52:53;;;;;;;4.35;3.67;;;;;;;15.91;70.10;98840.34;3557478;40;20046;-64
2021/07/01 06:55:50;;;;;;;4.30;3.75;;;;;;;15.94;69.60;98847.09;3577696;40;20044;-64
2021/07/01 06:58:23;;;;;;;4.57;3.55;;;;;;;15.91;69.77;98845.69;3579141;40;20113;-64
2021/07/01 07:00:51;;;;;;;4.07;3.67;;;;;;;15.88;69.80;98854.16;3578819;40;20052;-64
2021/07/01 07:03:20;;;;;;;3.90;3.38;;;;;;;15.86;70.03;98853.53;3579289;40;20061;-64
2021/07/01 07:05:50;;;;;;;5.70;3.30;;;;;;;15.89;69.76;98860.28;3579219;40;20319;-64
2021/07/01 07:08:19;;;;;;;3.22;2.92;;;;;;;15.76;69.98;98855.94;3579134;40;20295;-64
2021/07/01 07:10:48;;;;;;;5.05;2.90;;;;;;;15.89;69.49;98853.09;3578946;40;20021;-64
2021/07/01 07:13:16;;;;;;;3.83;2.85;;;;;;;15.92;69.25;98865.16;3578934;40;20053;-65
2021/07/01 07:15:45;;;;;;;5.05;3.13;;;;;;;15.99;69.49;98852.53;3581026;40;20040;-64
2021/07/01 07:18:16;;;;;;;3.10;2.80;;;;;;;15.99;68.97;98866.69;3582338;40;20037;-65
2021/07/01 07:20:46;;;;;;;4.88;2.60;;;;;;;15.93;68.11;98862.28;3582908;40;20042;-65
2021/07/01 07:23:19;;;;;;;3.47;2.30;;;;;;;15.96;68.57;98869.00;3581280;40;20107;-65
2021/07/01 07:25:48;;;;;;;2.90;2.20;;;;;;;16.08;68.33;98861.84;3579286;40;20048;-64
2021/07/01 07:28:19;;;;;;;3.97;2.60;;;;;;;16.05;67.78;98868.47;3578154;40;20140;-64
2021/07/01 07:30:49;;;;;;;2.92;2.28;;;;;;;15.93;68.48;98874.78;3578753;40;20033;-64
2021/07/01 07:33:19;;;;;;;2.75;2.35;;;;;;;15.97;68.62;98875.97;3578185;40;20075;-64
2021/07/01 07:35:48;;;;;;;3.35;2.15;;;;;;;15.89;68.75;98882.44;3578884;40;20072;-64
2021/07/01 07:38:17;;;;;;;2.60;2.40;;;;;;;15.74;68.53;98879.31;3578847;40;20085;-64
2021/07/01 07:40:49;;;;;;;3.40;1.98;;;;;;;15.69;69.18;98877.34;3578818;40;20049;-64
2021/07/01 07:43:19;;;;;;;2.35;2.15;;;;;;;15.65;69.18;98873.50;3578819;40;20025;-64
2021/07/01 07:45:48;;;;;;;2.70;2.25;;;;;;;15.64;69.54;98879.03;3578891;40;20033;-63
2021/07/01 07:48:16;;;;;;;3.10;2.05;;;;;;;15.61;69.63;98878.41;3578891;40;20068;-64
2021/07/01 07:50:49;;;;;;;2.53;2.33;;;;;;;15.67;69.32;98883.91;3578869;40;20409;-63
2021/07/01 07:53:21;;;;;;;3.95;2.55;;;;;;;15.65;68.99;98881.50;3578667;40;20052;-63
2021/07/01 07:55:52;;;;;;;4.65;2.40;;;;;;;15.66;69.08;98880.44;3579273;40;20041;-63
2021/07/01 07:58:24;;;;;;;2.70;2.47;;;;;;;15.69;68.80;98882.66;3578687;40;20057;-63
2021/07/01 08:00:52;;;;;;;2.63;2.30;;;;;;;15.69;69.03;98879.19;3578435;40;20078;-64
2021/07/01 08:03:20;;;;;;;2.47;2.28;;;;;;;15.64;69.11;98882.50;3578581;40;20404;-65
2021/07/01 08:05:48;;;;;;;4.60;2.20;;;;;;;15.60;69.19;98882.13;3578427;40;20049;-64
2021/07/01 08:08:17;;;;;;;3.05;2.25;;;;;;;15.54;69.43;98884.84;3577961;40;20040;-64
2021/07/01 08:10:45;;;;;;;3.13;2.85;;;;;;;15.45;69.81;98883.53;3578521;40;20095;-65
2021/07/01 08:13:14;;;;;;;2.38;2.17;;;;;;;15.45;69.83;98879.00;3577532;40;20318;-65
2021/07/01 08:15:43;;;;;;;4.43;2.22;;;;;;;15.41;69.95;98890.34;3578341;40;20044;-64
2021/07/01 08:18:22;;;;;;;1.77;1.67;;;;;;;15.29;70.05;98879.59;3579915;40;20045;-65
2021/07/01 08:20:49;;;;;;;2.20;1.90;;;;;;;15.33;70.35;98891.44;3579741;40;20334;-65
2021/07/01 08:23:19;;;;;;;2.22;1.75;;;;;;;15.52;70.15;98889.63;3578679;40;20053;-65
2021/07/01 08:25:47;;;;;;;1.80;1.70;;;;;;;15.62;70.28;98889.88;3578472;40;20057;-64
2021/07/01 08:28:19;;;;;;;2.38;1.88;;;;;;;15.74;69.98;98895.31;3578315;40;20045;-65
2021/07/01 08:30:48;;;;;;;1.73;1.63;;;;;;;15.77;69.63;98892.22;3578957;40;20052;-65
2021/07/01 08:33:24;;;;;;;2.28;1.15;;;;;;;15.76;69.50;98891.41;3578303;40;20081;-65
2021/07/01 08:35:55;;;;;;;1.73;1.45;;;;;;;15.67;69.61;98894.56;3579059;40;20051;-64
2021/07/01 08:38:24;;;;;;;1.17;1.10;;;;;;;15.53;70.43;98896.56;3579307;40;20060;-65
2021/07/01 08:40:59;;;;;;;1.40;1.30;;;;;;;15.32;71.51;98900.47;3577934;40;20126;-65
2021/07/01 08:43:40;;;;;;;1.52;1.42;;;;;;;15.36;72.77;98899.81;3579771;40;20041;-64
2021/07/01 08:46:14;;;;;;;1.65;1.55;;;;;;;15.42;72.89;98903.44;3580766;40;20051;-63
2021/07/01 08:48:59;;;;;;;1.55;1.45;;;;;;;15.46;73.26;98898.47;3580518;40;20329;-65
2021/07/01 08:51:32;;;;;;;3.80;1.67;;;;;;;15.38;73.30;98902.25;3581243;40;20049;-65
2021/07/01 08:54:24;;;;;;;2.80;2.13;;;;;;;15.22;73.84;98898.31;3581115;40;20060;-64
2021/07/01 08:56:53;;;;;;;2.38;2.10;;;;;;;15.25;74.26;98894.41;3581143;40;20060;-63
2021/07/01 08:59:24;;;;;;;2.75;2.42;;;;;;;15.32;73.91;98898.63;3581567;40;20333;-64
2021/07/01 09:01:58;;;;;;;2.50;2.22;;;;;;;15.35;74.09;98902.72;3581397;40;20045;-64
2021/07/01 09:04:30;;;;;;;2.53;2.20;;;;;;;15.36;73.80;98897.16;3581172;40;20049;-64
2021/07/01 09:07:00;;;;;;;2.55;2.35;;;;;;;15.44;74.28;98893.38;3580933;40;20342;-64
2021/07/01 09:09:34;;;;;;;3.08;2.53;;;;;;;15.63;74.18;98906.69;3581044;40;20096;-64
2021/07/01 09:12:03;;;;;;;;;;;;;;;15.72;74.04;98897.41;3580653;40;20329;-63
2021/07/01 09:14:32;;;;;;;4.55;2.70;;;;;;;15.89;73.18;98909.09;3580616;40;19950;-64
2021/07/01 09:17:03;;;;;;;2.97;2.78;;;;;;;15.95;72.62;98902.84;3580305;40;20060;-64
2021/07/01 09:19:33;;;;;;;3.58;2.90;;;;;;;15.88;72.97;98903.97;3583597;40;20056;-64
2021/07/01 09:22:01;;;;;;;2.92;2.70;;;;;;;15.83;72.39;98904.63;3582319;40;20057;-65
2021/07/01 09:24:35;;;;;;;3.17;2.75;;;;;;;15.80;73.15;98903.25;3582661;40;20080;-64
2021/07/01 09:27:04;;;;;;;;;;;;;;;15.87;72.72;98900.47;3586438;40;20045;-64
2021/07/01 09:29:32;;;;;;;3.30;2.78;;;;;;;15.96;72.44;98900.97;3582210;40;20319;-65
2021/07/01 09:32:02;;;;;;;4.07;3.15;;;;;;;16.01;72.70;98901.94;3580134;40;20048;-65
2021/07/01 09:34:33;;;;;;;5.03;3.42;;;;;;;16.09;72.04;98898.97;3579866;40;20086;-65
2021/07/01 09:37:03;;;;;;;4.15;3.08;;;;;;;16.07;71.71;98897.56;3578890;40;20056;-65
2021/07/01 09:39:32;;;;;;;3.17;2.88;;;;;;;16.01;72.48;98899.28;3580177;40;20390;-64
2021/07/01 09:42:02;;;;;;;2.90;2.60;;;;;;;15.89;71.66;98900.28;3581604;40;20041;-65
2021/07/01 09:44:32;;;;;;;4.53;2.60;;;;;;;15.81;72.25;98904.88;3584474;40;20045;-64
2021/07/01 09:47:05;;;;;;;3.75;3.03;;;;;;;15.80;72.18;98902.44;3584012;40;20096;-64
2021/07/01 09:49:34;;;;;;;4.43;2.67;;;;;;;15.79;71.51;98906.94;3582627;40;20053;-64
2021/07/01 09:52:06;;;;;;;3.67;2.60;;;;;;;15.71;71.98;98901.91;3580486;40;20056;-65
2021/07/01 09:54:35;;;;;;;4.72;2.97;;;;;;;15.71;72.65;98898.41;3580046;40;20412;-64
2021/07/01 09:57:12;;;;;;;3.58;3.22;;;;;;;15.72;72.98;98906.22;3580294;40;20425;-64
2021/07/01 09:59:47;;;;;;;4.55;2.90;;;;;;;15.72;73.08;98914.22;3580646;40;20088;-64
2021/07/01 10:02:18;;;;;;;3.60;2.70;;;;;;;15.64;72.27;98919.00;3580180;40;20092;-64
2021/07/01 10:04:47;;;;;;;3.38;3.03;;;;;;;15.63;72.12;98922.69;3580111;40;20052;-63
2021/07/01 10:07:16;;;;;;;4.25;3.13;;;;;;;15.76;72.88;98918.06;3582278;40;20048;-63
2021/07/01 10:09:45;;;;;;;3.00;2.67;;;;;;;15.83;72.56;98918.78;3582924;40;20056;-64
2021/07/01 10:12:15;;;;;;;3.85;3.00;;;;;;;15.83;72.30;98920.63;3581600;40;20115;-64
2021/07/01 10:14:44;;;;;;;3.92;2.65;;;;;;;15.93;72.19;98922.78;3581850;40;20339;-66
2021/07/01 10:17:12;;;;;;;3.22;2.88;;;;;;;15.85;72.22;98918.56;3580495;40;20044;-64
2021/07/01 10:19:42;;;;;;;3.08;2.80;;;;;;;15.75;72.40;98916.41;3581766;40;20041;-64
2021/07/01 10:22:11;;;;;;;3.42;2.70;;;;;;;15.76;72.99;98914.59;3581547;40;20057;-66
2021/07/01 10:24:51;;;;;;;3.10;2.90;;;;;;;15.87;72.91;98913.00;3581494;40;20357;-64
2021/07/01 10:27:30;;;;;;;3.50;3.20;;;;;;;15.83;73.48;98916.09;3582078;40;20041;-64
2021/07/01 10:30:01;;;;;;;4.40;3.53;;;;;;;15.78;73.11;98915.16;3581943;40;20129;-64
2021/07/01 10:32:36;;;;;;;4.07;3.30;;;;;;;15.80;73.31;98910.44;3581996;40;20049;-64
2021/07/01 10:35:18;;;;;;;4.22;3.08;;;;;;;15.79;73.48;98912.25;3582417;40;20049;-65
2021/07/01 10:38:05;;;;;;;4.03;2.92;;;;;;;15.90;73.09;98916.03;3582487;40;20061;-63
2021/07/01 10:40:36;;;;;;;3.50;2.95;;;;;;;15.95;72.99;98915.34;3582877;40;20049;-64
2021/07/01 10:43:05;;;;;;;4.78;2.40;;;;;;;16.00;73.41;98911.00;3582285;40;20081;-64
2021/07/01 10:45:33;;;;;;;3.00;2.78;;;;;;;16.03;72.73;98923.03;3582235;40;20052;-64
2021/07/01 10:48:14;;;;;;;4.00;2.97;;;;;;;15.93;72.74;98920.13;3580355;40;20146;-64
2021/07/01 10:50:44;;;;;;;3.38;2.58;;;;;;;15.84;72.92;98927.59;3579606;40;20041;-65
2021/07/01 10:53:31;;;;;;;4.00;3.15;;;;;;;15.76;73.28;98922.56;3581288;40;20055;-66
2021/07/01 10:56:01;;;;;;;3.97;2.80;;;;;;;15.63;73.82;98926.16;3578172;40;20338;-65
2021/07/01 10:58:30;;;;;;;4.30;2.88;;;;;;;15.81;73.88;98930.72;3578912;40;20053;-64
2021/07/01 11:01:22;;;;;;;3.05;2.67;;;;;;;16.09;72.98;98927.50;3578294;40;20053;-65
2021/07/01 11:04:05;;;;;;;3.17;2.88;;;;;;;16.32;71.81;98922.22;3579469;40;20053;-64
2021/07/01 11:06:34;;;;;;;5.22;3.20;;;;;;;16.44;71.37;98921.47;3578437;40;20049;-64
2021/07/01 11:09:03;;;;;;;4.10;3.20;;;;;;;16.70;70.27;98918.41;3579203;40;20398;-64
2021/07/01 11:11:33;;;;;;;3.15;2.85;;;;;;;17.01;69.64;98922.66;3578974;40;20338;-65
2021/07/01 11:14:03;;;;;;;3.72;2.60;;;;;;;17.30;68.58;98920.09;3579444;40;20045;-65
2021/07/01 11:16:37;;;;;;;2.38;2.17;;;;;;;17.54;66.70;98915.53;3579186;40;20096;-65
2021/07/01 11:19:06;;;;;;;2.10;1.90;;;;;;;17.55;66.68;98918.00;3578218;40;20049;-65
2021/07/01 11:21:35;;;;;;;2.30;2.00;;;;;;;17.74;65.69;98918.66;3577858;40;20429;-65
2021/07/01 11:24:13;;;;;;;2.58;2.10;;;;;;;17.94;64.67;98915.59;3578946;40;20053;-65
2021/07/01 11:26:43;;;;;;;3.33;1.90;;;;;;;17.90;64.11;98906.44;3577914;40;20091;-64
2021/07/01 11:29:11;;;;;;;1.90;1.80;;;;;;;17.64;62.27;98915.78;3578800;40;20081;-65
2021/07/01 11:31:43;;;;;;;2.42;1.80;;;;;;;17.47;63.86;98909.50;3578756;40;20085;-66
2021/07/01 11:34:14;;;;;;;3.60;2.17;;;;;;;17.38;63.85;98916.25;3578055;40;20045;-65
2021/07/01 11:36:49;;;;;;;3.65;1.80;;;;;;;17.30;63.46;98920.91;3579163;40;20052;-65
2021/07/01 11:39:18;;;;;;;2.53;2.33;;;;;;;16.99;63.18;98922.06;3579266;40;20059;-64
2021/07/01 11:41:47;;;;;;;3.53;2.58;;;;;;;16.92;63.98;98926.72;3579002;40;20125;-64
2021/07/01 11:44:14;;;;;;;2.25;1.90;;;;;;;16.80;63.23;98937.38;3578313;40;20078;-64
2021/07/01 11:46:44;;;;;;;2.00;1.80;;;;;;;16.60;64.15;98932.28;3578453;40;20296;-63
2021/07/01 11:49:13;;;;;;;4.40;2.92;;;;;;;16.49;64.60;98943.78;3578072;40;20351;-64
2021/07/01 11:51:43;;;;;;;2.58;2.30;;;;;;;16.54;64.67;98940.41;3614004;22;20037;-60
2021/07/01 11:54:19;;;;;;;2.88;2.38;;;;;;;16.48;64.40;98942.13;3577499;40;20052;-60
2021/07/01 11:56:57;;;;;;;2.47;2.28;;;;;;;16.53;64.44;98946.78;3578197;40;20052;-60
2021/07/01 11:59:27;;;;;;;3.40;2.90;;;;;;;16.58;64.17;98934.41;3578650;40;20081;-61